Reiles Acres, North Dakota
Current Conditions -  °F | °C
As of 4:53 AM on Thursday 18 Dec 2014 (Local Time) from KFAR Reporting Station
Clear Clear  
Wind Chill:   Ceiling: Unl
Heat Index:   Visibility: 10mi
Dew Point:   Wind: 3mph
Humidity: 84%   Direction: 140°SE
Pressure: 30.27"   Gusts: NA
Location:  46.9259°N, 96.8507°W
Report Text: KFAR 181053Z 14003KT 10SM CLR M13/M15 A3027 RMK AO2 SLP271 T11281150
Loading
Personal Weather Stations






























Interactive Weather Map New forecast layout! Learn more

10-Day Weather Forecast

Advertisements
Track Severe Weather on mobile